Time;durP1;ratioP1;P1;durP2;ratioP2;P2;SDS_P1;SDS_P2;PMS_P1;PMS_P2;Temp;Humidity;BMP_temperature;BMP_pressure;BME280_temperature;BME280_humidity;BME280_pressure;Samples;Min_cycle;Max_cycle;Signal;HPM_P1;HPM_P2
2023/09/29 00:00:47;;;;;;;22.02;11.10;;;;;;;;;;4976321;28;20026;-62
2023/09/29 00:03:15;;;;;;;19.33;11.80;;;;;;;;;;4976006;28;20042;-64
2023/09/29 00:05:41;;;;;;;21.75;11.23;;;;;;;;;;4976236;28;20358;-62
2023/09/29 00:08:13;;;;;;;18.27;10.57;;;;;;;;;;4976183;28;20031;-62
2023/09/29 00:10:40;;;;;;;20.35;11.15;;;;;;;;;;4974868;28;20026;-62
2023/09/29 00:13:06;;;;;;;26.63;10.93;;;;;;;;;;4976204;28;20027;-62
2023/09/29 00:15:33;;;;;;;16.60;11.20;;;;;;;;;;4975973;28;20106;-62
2023/09/29 00:18:03;;;;;;;19.20;11.13;;;;;;;;;;4975758;28;20035;-62
2023/09/29 00:20:29;;;;;;;24.50;11.57;;;;;;;;;;4957400;28;20109;-62
2023/09/29 00:22:57;;;;;;;17.35;10.50;;;;;;;;;;4962486;28;20038;-62
2023/09/29 00:25:23;;;;;;;16.77;10.40;;;;;;;;;;4975915;28;20027;-62
2023/09/29 00:27:50;;;;;;;19.92;10.85;;;;;;;;;;4975523;28;20030;-62
2023/09/29 00:30:16;;;;;;;16.48;10.57;;;;;;;;;;4975915;28;20420;-62
2023/09/29 00:32:52;;;;;;;21.38;12.63;;;;;;;;;;4975631;28;20027;-62
2023/09/29 00:35:24;;;;;;;21.85;10.95;;;;;;;;;;4975630;28;20499;-62
2023/09/29 00:38:00;;;;;;;22.52;10.57;;;;;;;;;;4993938;28;20492;-65
2023/09/29 00:40:26;;;;;;;20.80;11.50;;;;;;;;;;4994974;28;20030;-63
2023/09/29 00:42:52;;;;;;;18.08;10.60;;;;;;;;;;4995386;28;20426;-62
2023/09/29 00:45:25;;;;;;;21.17;10.77;;;;;;;;;;4994903;28;20030;-65
2023/09/29 00:47:54;;;;;;;20.40;11.05;;;;;;;;;;4994524;28;20057;-62
2023/09/29 00:50:20;;;;;;;17.83;10.30;;;;;;;;;;4993392;28;20034;-61
2023/09/29 00:52:49;;;;;;;19.65;11.10;;;;;;;;;;4975320;28;20114;-65
2023/09/29 00:55:17;;;;;;;20.05;10.75;;;;;;;;;;4975261;28;20432;-61
2023/09/29 00:57:47;;;;;;;21.50;10.48;;;;;;;;;;4975068;28;20041;-62
2023/09/29 01:00:29;;;;;;;;;;;;;;;;;;4975541;28;20110;-63
2023/09/29 01:02:56;;;;;;;16.77;9.90;;;;;;;;;;4975186;28;20367;-62
2023/09/29 01:05:21;;;;;;;16.75;10.07;;;;;;;;;;4975052;28;20054;-62
2023/09/29 01:07:47;;;;;;;16.70;10.35;;;;;;;;;;4974913;28;20056;-63
2023/09/29 01:10:15;;;;;;;21.40;10.20;;;;;;;;;;4975049;28;20023;-62
2023/09/29 01:12:41;;;;;;;25.70;13.10;;;;;;;;;;4974980;28;20031;-62
2023/09/29 01:15:08;;;;;;;14.80;10.38;;;;;;;;;;4974691;28;20050;-61
2023/09/29 01:17:33;;;;;;;16.00;9.75;;;;;;;;;;4974962;28;20062;-62
2023/09/29 01:19:59;;;;;;;18.85;10.38;;;;;;;;;;4971963;28;20031;-61
2023/09/29 01:22:24;;;;;;;19.23;10.00;;;;;;;;;;4957294;28;20348;-64
2023/09/29 01:24:49;;;;;;;19.35;10.63;;;;;;;;;;4979897;28;20030;-64
2023/09/29 01:27:15;;;;;;;18.35;10.48;;;;;;;;;;4994033;28;20030;-62
2023/09/29 01:29:44;;;;;;;17.02;10.68;;;;;;;;;;4976118;28;20039;-62
2023/09/29 01:32:14;;;;;;;17.02;10.07;;;;;;;;;;4974537;28;20382;-62
2023/09/29 01:34:39;;;;;;;23.98;9.88;;;;;;;;;;4974592;28;20035;-63
2023/09/29 01:37:05;;;;;;;18.63;9.68;;;;;;;;;;4986810;28;20070;-62
2023/09/29 01:39:31;;;;;;;15.57;10.25;;;;;;;;;;4993779;28;20022;-62
2023/09/29 01:41:56;;;;;;;17.05;10.45;;;;;;;;;;4993851;28;20109;-62
2023/09/29 01:44:22;;;;;;;17.63;9.77;;;;;;;;;;4993642;28;20109;-64
2023/09/29 01:46:49;;;;;;;15.52;9.75;;;;;;;;;;4993993;28;20018;-62
2023/09/29 01:49:15;;;;;;;19.30;10.30;;;;;;;;;;4993492;28;20047;-62
2023/09/29 01:51:40;;;;;;;19.58;10.32;;;;;;;;;;4992479;28;20022;-62
2023/09/29 01:54:06;;;;;;;14.30;9.65;;;;;;;;;;4974390;28;20105;-65
2023/09/29 01:56:31;;;;;;;18.17;10.02;;;;;;;;;;4974302;28;20103;-63
2023/09/29 01:58:58;;;;;;;13.05;9.88;;;;;;;;;;4974094;28;20417;-61
2023/09/29 02:01:23;;;;;;;16.75;10.35;;;;;;;;;;4974109;28;20035;-62
2023/09/29 02:03:49;;;;;;;13.98;9.98;;;;;;;;;;4974062;28;20101;-62
2023/09/29 02:06:15;;;;;;;15.13;10.45;;;;;;;;;;4974323;28;20031;-65
2023/09/29 02:08:42;;;;;;;15.25;9.93;;;;;;;;;;4973961;28;20041;-64
2023/09/29 02:11:08;;;;;;;19.08;11.27;;;;;;;;;;4973624;28;20081;-62
2023/09/29 02:13:34;;;;;;;15.50;10.85;;;;;;;;;;4973975;28;20051;-62
2023/09/29 02:16:00;;;;;;;16.75;10.68;;;;;;;;;;4974118;28;20492;-63
2023/09/29 02:18:27;;;;;;;17.55;10.93;;;;;;;;;;4973977;28;20521;-64
2023/09/29 02:20:55;;;;;;;14.30;10.63;;;;;;;;;;4968877;28;20473;-64
2023/09/29 02:23:22;;;;;;;17.45;10.88;;;;;;;;;;4964214;28;20042;-64
2023/09/29 02:25:48;;;;;;;19.38;10.63;;;;;;;;;;4974097;28;20476;-64
2023/09/29 02:28:14;;;;;;;14.75;9.93;;;;;;;;;;4973580;28;20045;-61
2023/09/29 02:30:40;;;;;;;14.35;10.82;;;;;;;;;;4973888;28;20395;-64
2023/09/29 02:33:06;;;;;;;18.13;11.25;;;;;;;;;;4973912;28;20018;-64
2023/09/29 02:35:32;;;;;;;18.90;11.35;;;;;;;;;;4974131;28;20031;-64
2023/09/29 02:37:58;;;;;;;15.05;11.77;;;;;;;;;;4954817;28;20054;-64
2023/09/29 02:40:24;;;;;;;19.70;11.10;;;;;;;;;;4954642;28;20465;-64
2023/09/29 02:42:50;;;;;;;14.32;9.85;;;;;;;;;;4954454;28;20027;-62
2023/09/29 02:45:15;;;;;;;13.27;10.35;;;;;;;;;;4954567;28;20023;-63
2023/09/29 02:47:42;;;;;;;16.40;10.68;;;;;;;;;;4954343;28;20062;-64
2023/09/29 02:50:09;;;;;;;22.55;10.60;;;;;;;;;;4954688;28;20027;-64
2023/09/29 02:52:35;;;;;;;23.15;11.27;;;;;;;;;;4971818;28;20392;-64
2023/09/29 02:55:04;;;;;;;18.13;9.77;;;;;;;;;;4973715;28;20023;-64
2023/09/29 02:57:30;;;;;;;17.05;10.90;;;;;;;;;;4972261;28;20026;-65
2023/09/29 02:59:57;;;;;;;13.52;9.85;;;;;;;;;;4973789;28;20042;-65
2023/09/29 03:02:23;;;;;;;14.93;10.25;;;;;;;;;;4973750;28;20384;-64
2023/09/29 03:04:48;;;;;;;37.45;22.52;;;;;;;;;;4973577;28;20030;-64
2023/09/29 03:07:14;;;;;;;17.15;10.75;;;;;;;;;;4973533;28;20049;-64
2023/09/29 03:09:41;;;;;;;15.77;10.32;;;;;;;;;;4973361;28;20203;-62
2023/09/29 03:12:07;;;;;;;14.45;9.75;;;;;;;;;;4973351;28;20030;-65
2023/09/29 03:14:32;;;;;;;14.93;11.27;;;;;;;;;;4973495;28;20027;-63
2023/09/29 03:17:01;;;;;;;17.88;9.98;;;;;;;;;;4973437;28;20481;-64
2023/09/29 03:19:27;;;;;;;16.50;10.88;;;;;;;;;;4972218;28;20433;-61
2023/09/29 03:21:52;;;;;;;17.20;10.25;;;;;;;;;;4972061;28;20396;-62
2023/09/29 03:24:18;;;;;;;21.50;11.82;;;;;;;;;;4974481;28;20030;-62
2023/09/29 03:26:44;;;;;;;20.50;10.82;;;;;;;;;;4976662;28;20039;-62
2023/09/29 03:29:10;;;;;;;14.20;10.45;;;;;;;;;;4976533;28;20035;-63
2023/09/29 03:31:36;;;;;;;13.20;10.25;;;;;;;;;;4976875;28;20027;-63
2023/09/29 03:34:02;;;;;;;23.05;11.23;;;;;;;;;;4976862;28;20504;-62
2023/09/29 03:36:29;;;;;;;17.10;11.02;;;;;;;;;;4984103;28;20030;-63
2023/09/29 03:38:54;;;;;;;13.25;10.13;;;;;;;;;;4996216;28;20050;-63
2023/09/29 03:41:20;;;;;;;17.63;10.00;;;;;;;;;;4995745;28;20065;-62
2023/09/29 03:43:46;;;;;;;16.40;10.07;;;;;;;;;;4996027;28;20026;-62
2023/09/29 03:46:24;;;;;;;13.13;9.75;;;;;;;;;;4996158;28;20093;-62
2023/09/29 03:48:49;;;;;;;16.05;10.13;;;;;;;;;;4995654;28;20054;-62
2023/09/29 03:51:22;;;;;;;20.80;10.18;;;;;;;;;;4995923;28;20030;-66
2023/09/29 03:53:48;;;;;;;17.20;10.23;;;;;;;;;;4986384;28;20026;-62
2023/09/29 03:56:14;;;;;;;15.23;9.32;;;;;;;;;;4976255;28;20027;-66
2023/09/29 03:58:40;;;;;;;14.77;11.02;;;;;;;;;;4976234;28;20158;-62
2023/09/29 04:01:05;;;;;;;20.55;10.65;;;;;;;;;;4976255;28;20105;-62
2023/09/29 04:03:31;;;;;;;14.80;11.15;;;;;;;;;;4976304;28;20038;-62
2023/09/29 04:05:57;;;;;;;15.02;11.20;;;;;;;;;;4976180;28;20022;-63
2023/09/29 04:08:22;;;;;;;14.23;10.85;;;;;;;;;;4976048;28;20432;-62
2023/09/29 04:10:47;;;;;;;18.23;11.40;;;;;;;;;;4975947;28;20023;-62
2023/09/29 04:13:13;;;;;;;19.13;11.20;;;;;;;;;;4975948;28;20392;-62
2023/09/29 04:15:38;;;;;;;17.90;11.55;;;;;;;;;;4976069;28;20023;-63
2023/09/29 04:18:04;;;;;;;13.63;10.70;;;;;;;;;;4976078;28;20034;-63
2023/09/29 04:20:31;;;;;;;14.60;10.57;;;;;;;;;;4975864;28;20034;-62
2023/09/29 04:22:56;;;;;;;15.07;11.10;;;;;;;;;;4970677;28;20055;-62
2023/09/29 04:25:22;;;;;;;17.90;11.85;;;;;;;;;;4975184;28;20070;-62
2023/09/29 04:27:47;;;;;;;15.05;11.32;;;;;;;;;;4975443;28;20102;-63
2023/09/29 04:30:13;;;;;;;19.00;11.82;;;;;;;;;;4975772;28;20034;-63
2023/09/29 04:32:38;;;;;;;15.07;11.10;;;;;;;;;;4975227;28;20441;-63
2023/09/29 04:35:07;;;;;;;15.55;11.18;;;;;;;;;;4975687;28;20054;-63
2023/09/29 04:37:33;;;;;;;19.02;11.52;;;;;;;;;;4991647;28;20069;-62
2023/09/29 04:39:58;;;;;;;17.30;12.48;;;;;;;;;;4995014;28;20031;-63
2023/09/29 04:42:24;;;;;;;15.60;10.70;;;;;;;;;;4995042;28;20057;-63
2023/09/29 04:44:50;;;;;;;19.00;11.60;;;;;;;;;;4995018;28;20033;-63
2023/09/29 04:47:15;;;;;;;15.10;11.77;;;;;;;;;;4994922;28;20457;-62
2023/09/29 04:49:41;;;;;;;16.48;12.25;;;;;;;;;;4994553;28;20054;-62
2023/09/29 04:52:07;;;;;;;18.63;12.30;;;;;;;;;;4994597;28;20033;-63
2023/09/29 04:54:32;;;;;;;22.17;12.50;;;;;;;;;;4979919;28;20033;-63
2023/09/29 04:56:58;;;;;;;16.92;12.30;;;;;;;;;;4975108;28;20026;-63
2023/09/29 04:59:23;;;;;;;17.40;12.43;;;;;;;;;;4975192;28;20023;-63
2023/09/29 05:01:48;;;;;;;14.35;12.15;;;;;;;;;;4975160;28;20031;-66
2023/09/29 05:04:14;;;;;;;20.35;12.43;;;;;;;;;;4975037;28;20036;-64
2023/09/29 05:06:39;;;;;;;19.02;12.32;;;;;;;;;;4974822;28;20107;-63
2023/09/29 05:09:05;;;;;;;14.85;11.80;;;;;;;;;;4974960;28;20027;-62
2023/09/29 05:11:31;;;;;;;17.00;11.60;;;;;;;;;;4974539;28;20407;-66
2023/09/29 05:13:56;;;;;;;18.83;11.55;;;;;;;;;;4974759;28;20106;-64
2023/09/29 05:16:22;;;;;;;20.20;13.10;;;;;;;;;;4974910;28;20042;-62
2023/09/29 05:18:48;;;;;;;17.65;11.43;;;;;;;;;;4974975;28;20472;-63
2023/09/29 05:21:14;;;;;;;21.67;12.98;;;;;;;;;;4974715;28;20038;-64
2023/09/29 05:23:40;;;;;;;18.45;12.27;;;;;;;;;;4974308;28;20031;-63
2023/09/29 05:26:07;;;;;;;19.45;12.73;;;;;;;;;;4974923;28;20031;-64
2023/09/29 05:28:37;;;;;;;16.38;11.73;;;;;;;;;;4973271;28;20038;-63
2023/09/29 05:31:03;;;;;;;21.60;12.95;;;;;;;;;;4974541;28;20030;-63
2023/09/29 05:33:30;;;;;;;19.23;12.05;;;;;;;;;;4974657;28;20114;-63
2023/09/29 05:35:56;;;;;;;16.95;12.20;;;;;;;;;;4977478;28;20157;-64
2023/09/29 05:38:21;;;;;;;21.13;12.15;;;;;;;;;;4993874;28;20446;-63
2023/09/29 05:40:47;;;;;;;18.92;12.38;;;;;;;;;;4994170;28;20030;-64
2023/09/29 05:43:13;;;;;;;25.48;13.02;;;;;;;;;;4993812;28;20065;-64
2023/09/29 05:45:39;;;;;;;16.05;12.15;;;;;;;;;;4993063;28;20113;-66
2023/09/29 05:48:06;;;;;;;19.63;12.60;;;;;;;;;;4993525;28;20042;-64
2023/09/29 05:50:31;;;;;;;19.98;13.20;;;;;;;;;;4993558;28;20428;-64
2023/09/29 05:52:57;;;;;;;17.98;11.98;;;;;;;;;;4993866;28;20116;-65
2023/09/29 05:55:23;;;;;;;17.48;12.43;;;;;;;;;;4982754;28;20037;-63
2023/09/29 05:57:52;;;;;;;18.77;11.70;;;;;;;;;;4974204;28;20037;-65
2023/09/29 06:00:18;;;;;;;19.40;12.45;;;;;;;;;;4974219;28;20475;-63
2023/09/29 06:02:44;;;;;;;20.77;12.30;;;;;;;;;;4974215;28;20050;-64
2023/09/29 06:05:10;;;;;;;26.13;12.88;;;;;;;;;;4973817;28;20465;-63
2023/09/29 06:07:36;;;;;;;19.08;13.32;;;;;;;;;;4974221;28;20035;-63
2023/09/29 06:10:03;;;;;;;19.60;11.90;;;;;;;;;;4973981;28;20046;-64
2023/09/29 06:12:28;;;;;;;21.40;11.65;;;;;;;;;;4974092;28;20503;-63
2023/09/29 06:14:54;;;;;;;16.40;11.05;;;;;;;;;;4974138;28;20031;-63
2023/09/29 06:17:19;;;;;;;17.02;11.50;;;;;;;;;;4974096;28;20019;-63
2023/09/29 06:19:44;;;;;;;14.38;10.32;;;;;;;;;;4973451;28;20393;-63
2023/09/29 06:22:10;;;;;;;19.85;10.15;;;;;;;;;;4973967;28;20038;-64
2023/09/29 06:24:35;;;;;;;15.10;9.15;;;;;;;;;;4973892;28;20038;-65
2023/09/29 06:27:01;;;;;;;15.23;9.48;;;;;;;;;;4973925;28;20050;-62
2023/09/29 06:29:26;;;;;;;14.52;8.95;;;;;;;;;;4973582;28;20274;-63
2023/09/29 06:31:53;;;;;;;15.57;9.15;;;;;;;;;;4973748;28;20035;-63
2023/09/29 06:34:19;;;;;;;16.52;8.82;;;;;;;;;;4973260;28;20132;-64
2023/09/29 06:36:45;;;;;;;11.48;8.07;;;;;;;;;;4971717;28;20086;-63
2023/09/29 06:39:12;;;;;;;13.77;9.02;;;;;;;;;;4962767;28;20085;-63
2023/09/29 06:41:38;;;;;;;13.25;8.18;;;;;;;;;;4971818;28;20035;-64
2023/09/29 06:44:03;;;;;;;12.00;7.35;;;;;;;;;;4985890;28;20046;-64
2023/09/29 06:46:28;;;;;;;14.40;9.13;;;;;;;;;;4976938;28;20469;-64
2023/09/29 06:48:54;;;;;;;12.40;8.23;;;;;;;;;;4989069;28;20049;-64
2023/09/29 06:51:19;;;;;;;16.00;8.18;;;;;;;;;;4979931;28;20031;-65
2023/09/29 06:53:45;;;;;;;11.48;7.13;;;;;;;;;;4983122;28;20106;-65
2023/09/29 06:56:10;;;;;;;10.70;7.85;;;;;;;;;;4979202;28;20030;-64
2023/09/29 06:58:36;;;;;;;11.65;8.80;;;;;;;;;;4993124;28;20034;-63
2023/09/29 07:01:02;;;;;;;14.57;8.07;;;;;;;;;;4972993;28;20031;-65
2023/09/29 07:03:30;;;;;;;14.40;8.55;;;;;;;;;;4973459;28;20033;-67
2023/09/29 07:05:56;;;;;;;13.50;7.97;;;;;;;;;;4978602;28;20031;-66
2023/09/29 07:08:22;;;;;;;13.65;8.02;;;;;;;;;;4976541;28;20041;-64
2023/09/29 07:10:48;;;;;;;13.75;7.50;;;;;;;;;;4977124;28;20023;-64
2023/09/29 07:13:14;;;;;;;16.05;8.95;;;;;;;;;;4977430;28;20046;-66
2023/09/29 07:15:40;;;;;;;11.63;7.50;;;;;;;;;;4976958;28;20458;-67
2023/09/29 07:18:10;;;;;;;15.23;8.20;;;;;;;;;;4976693;28;20055;-66
2023/09/29 07:20:36;;;;;;;16.27;8.50;;;;;;;;;;4976765;28;20029;-65
2023/09/29 07:23:03;;;;;;;15.57;9.40;;;;;;;;;;4977032;28;20082;-64
2023/09/29 07:25:28;;;;;;;14.55;8.77;;;;;;;;;;4982195;28;20127;-67
2023/09/29 07:27:53;;;;;;;16.67;8.32;;;;;;;;;;4992493;28;20074;-63
2023/09/29 07:30:19;;;;;;;12.57;8.90;;;;;;;;;;4976460;28;20113;-66
2023/09/29 07:32:45;;;;;;;20.25;10.45;;;;;;;;;;4976518;28;20107;-64
2023/09/29 07:35:10;;;;;;;16.42;8.45;;;;;;;;;;4980456;28;20041;-67
2023/09/29 07:37:38;;;;;;;17.27;9.10;;;;;;;;;;4979344;28;20031;-64
2023/09/29 07:40:05;;;;;;;14.60;9.43;;;;;;;;;;4976680;28;20519;-64
2023/09/29 07:42:30;;;;;;;15.18;8.95;;;;;;;;;;4980556;28;20042;-64
2023/09/29 07:44:55;;;;;;;13.90;8.43;;;;;;;;;;4995856;28;20022;-66
2023/09/29 07:47:21;;;;;;;15.13;8.98;;;;;;;;;;4995306;28;20491;-67
2023/09/29 07:49:46;;;;;;;20.25;8.77;;;;;;;;;;4995545;28;20054;-65
2023/09/29 07:52:12;;;;;;;21.33;9.30;;;;;;;;;;4995484;28;20030;-62
2023/09/29 07:54:37;;;;;;;17.10;9.30;;;;;;;;;;4995458;28;20458;-62
2023/09/29 07:57:03;;;;;;;14.02;8.48;;;;;;;;;;4977800;28;20203;-64
2023/09/29 07:59:28;;;;;;;14.38;8.85;;;;;;;;;;4976162;28;20134;-64
2023/09/29 08:01:54;;;;;;;15.57;8.05;;;;;;;;;;4975924;28;20027;-65
2023/09/29 08:04:19;;;;;;;17.38;8.57;;;;;;;;;;4984645;28;20113;-65
2023/09/29 08:06:45;;;;;;;22.58;10.45;;;;;;;;;;4975772;28;20027;-62
2023/09/29 08:09:12;;;;;;;11.95;9.15;;;;;;;;;;4974845;28;20101;-65
2023/09/29 08:11:39;;;;;;;14.23;8.43;;;;;;;;;;4975983;28;20031;-64
2023/09/29 08:14:05;;;;;;;17.95;8.20;;;;;;;;;;4976634;28;20544;-62
2023/09/29 08:16:30;;;;;;;12.20;8.55;;;;;;;;;;4989536;28;20183;-64
2023/09/29 08:18:56;;;;;;;18.38;9.73;;;;;;;;;;4995204;28;20027;-62
2023/09/29 08:21:22;;;;;;;13.93;8.38;;;;;;;;;;4995214;28;20053;-63
2023/09/29 08:23:47;;;;;;;15.77;9.45;;;;;;;;;;4981746;28;20023;-65
2023/09/29 08:26:12;;;;;;;13.45;8.55;;;;;;;;;;4975279;28;20114;-64
2023/09/29 08:28:38;;;;;;;17.45;10.93;;;;;;;;;;4975587;28;20083;-66
2023/09/29 08:31:13;;;;;;;13.90;8.35;;;;;;;;;;4973865;28;20049;-62
2023/09/29 08:33:38;;;;;;;11.95;8.45;;;;;;;;;;4975541;28;20081;-63
2023/09/29 08:36:04;;;;;;;13.45;7.78;;;;;;;;;;4975491;28;20435;-65
2023/09/29 08:38:29;;;;;;;11.95;7.70;;;;;;;;;;4975196;28;20034;-62
2023/09/29 08:40:55;;;;;;;14.35;8.77;;;;;;;;;;4975253;28;20038;-65
2023/09/29 08:43:21;;;;;;;16.30;8.40;;;;;;;;;;4974920;28;20023;-65
2023/09/29 08:45:48;;;;;;;11.30;7.88;;;;;;;;;;4974938;28;20057;-62
2023/09/29 08:48:14;;;;;;;12.02;7.47;;;;;;;;;;4974854;28;20046;-62
2023/09/29 08:50:41;;;;;;;14.63;7.85;;;;;;;;;;4975156;28;20062;-62
2023/09/29 08:53:10;;;;;;;13.20;7.60;;;;;;;;;;4975186;28;20061;-62
2023/09/29 08:55:38;;;;;;;14.13;6.93;;;;;;;;;;4975045;28;20105;-63
2023/09/29 08:58:04;;;;;;;14.93;7.97;;;;;;;;;;4974974;28;20078;-65
2023/09/29 09:00:31;;;;;;;12.35;7.82;;;;;;;;;;4973645;28;20037;-66
2023/09/29 09:02:58;;;;;;;10.05;7.22;;;;;;;;;;4993209;28;20041;-64
2023/09/29 09:05:23;;;;;;;10.63;7.63;;;;;;;;;;4980154;28;20113;-63
2023/09/29 09:07:50;;;;;;;14.25;8.55;;;;;;;;;;4993750;28;20094;-64
2023/09/29 09:10:16;;;;;;;13.27;7.88;;;;;;;;;;4994071;28;20435;-65
2023/09/29 09:12:43;;;;;;;13.52;7.53;;;;;;;;;;4989998;28;20076;-65
2023/09/29 09:15:09;;;;;;;13.48;7.95;;;;;;;;;;4974612;28;20070;-64
2023/09/29 09:17:35;;;;;;;12.15;7.93;;;;;;;;;;4974847;28;20027;-67
2023/09/29 09:20:02;;;;;;;14.23;7.50;;;;;;;;;;4974473;28;20061;-68
2023/09/29 09:22:32;;;;;;;17.05;8.13;;;;;;;;;;4974576;28;20042;-63
2023/09/29 09:24:58;;;;;;;16.80;9.10;;;;;;;;;;4974829;28;20050;-64
2023/09/29 09:27:24;;;;;;;12.38;8.40;;;;;;;;;;4974763;28;20558;-63
2023/09/29 09:29:50;;;;;;;12.30;7.25;;;;;;;;;;4973843;28;20042;-64
2023/09/29 09:32:25;;;;;;;12.95;7.78;;;;;;;;;;4974412;28;20073;-64
2023/09/29 09:34:50;;;;;;;16.30;7.90;;;;;;;;;;4974458;28;20488;-64
2023/09/29 09:37:24;;;;;;;17.23;7.63;;;;;;;;;;4974495;28;20023;-64
2023/09/29 09:39:49;;;;;;;18.52;6.90;;;;;;;;;;4974414;28;20035;-65
2023/09/29 09:42:16;;;;;;;16.50;7.53;;;;;;;;;;4973994;28;20042;-63
2023/09/29 09:44:42;;;;;;;22.85;8.07;;;;;;;;;;4974213;28;20058;-64
2023/09/29 09:47:14;;;;;;;21.95;8.00;;;;;;;;;;4974377;28;20045;-64
2023/09/29 09:49:45;;;;;;;18.08;7.30;;;;;;;;;;4974089;28;20055;-64
2023/09/29 09:52:15;;;;;;;15.88;7.22;;;;;;;;;;4974215;28;20453;-65
2023/09/29 09:54:56;;;;;;;15.30;7.10;;;;;;;;;;4974191;28;20451;-63
2023/09/29 09:57:35;;;;;;;20.23;7.30;;;;;;;;;;4955691;28;20049;-63
2023/09/29 10:00:10;;;;;;;18.27;7.35;;;;;;;;;;4967467;28;20029;-64
2023/09/29 10:02:52;;;;;;;22.00;7.65;;;;;;;;;;4964751;28;20037;-64
2023/09/29 10:05:30;;;;;;;18.77;6.88;;;;;;;;;;4972956;28;20027;-64
2023/09/29 10:08:01;;;;;;;15.85;7.53;;;;;;;;;;4967797;28;20035;-66
2023/09/29 10:10:32;;;;;;;13.40;7.40;;;;;;;;;;4973366;28;20105;-64
2023/09/29 10:12:58;;;;;;;16.92;6.97;;;;;;;;;;4974360;28;20034;-64
2023/09/29 10:15:29;;;;;;;19.20;7.40;;;;;;;;;;4973911;28;20052;-66
2023/09/29 10:18:12;;;;;;;15.32;7.57;;;;;;;;;;4973919;28;20111;-64
2023/09/29 10:20:38;;;;;;;15.48;7.60;;;;;;;;;;4973912;28;20383;-65
2023/09/29 10:23:13;;;;;;;12.10;7.38;;;;;;;;;;4973667;28;20122;-64
2023/09/29 10:25:41;;;;;;;10.02;6.90;;;;;;;;;;4973722;28;20468;-67
2023/09/29 10:28:07;;;;;;;11.85;6.60;;;;;;;;;;4973269;28;20034;-63
2023/09/29 10:30:39;;;;;;;14.25;7.57;;;;;;;;;;4973523;28;20117;-65
2023/09/29 10:33:11;;;;;;;15.70;8.00;;;;;;;;;;4977618;28;20524;-64
2023/09/29 10:35:44;;;;;;;17.80;7.80;;;;;;;;;;4976915;28;20384;-64
2023/09/29 10:38:30;;;;;;;14.90;7.25;;;;;;;;;;4977626;28;20062;-64
2023/09/29 10:40:58;;;;;;;18.80;8.05;;;;;;;;;;4977132;28;20507;-63
2023/09/29 10:43:24;;;;;;;17.88;8.35;;;;;;;;;;4977600;28;20037;-65
2023/09/29 10:45:50;;;;;;;16.63;7.72;;;;;;;;;;4977375;28;20022;-63
2023/09/29 10:48:23;;;;;;;15.50;8.07;;;;;;;;;;4977063;28;20047;-63
2023/09/29 10:50:50;;;;;;;15.75;7.35;;;;;;;;;;4977689;28;20030;-64
2023/09/29 10:53:17;;;;;;;15.93;7.28;;;;;;;;;;4977479;28;20031;-64
2023/09/29 10:55:54;;;;;;;14.18;7.45;;;;;;;;;;4976857;28;20030;-66
2023/09/29 10:58:21;;;;;;;17.65;7.20;;;;;;;;;;4977013;28;20366;-64
2023/09/29 11:00:51;;;;;;;19.00;8.20;;;;;;;;;;4977140;28;20396;-65
2023/09/29 11:03:18;;;;;;;13.35;7.20;;;;;;;;;;4977218;28;20085;-64
2023/09/29 11:05:50;;;;;;;12.23;7.60;;;;;;;;;;4977109;28;20071;-64
2023/09/29 11:08:19;;;;;;;11.52;7.65;;;;;;;;;;4976812;28;20081;-64
2023/09/29 11:11:01;;;;;;;13.10;7.75;;;;;;;;;;4976573;28;20507;-63
2023/09/29 11:13:27;;;;;;;11.25;7.15;;;;;;;;;;4977784;28;20495;-64
2023/09/29 11:15:54;;;;;;;15.48;7.75;;;;;;;;;;4977071;28;20027;-63
2023/09/29 11:18:31;;;;;;;18.52;7.20;;;;;;;;;;4976692;28;20061;-67
2023/09/29 11:20:59;;;;;;;11.13;7.22;;;;;;;;;;4976973;28;20085;-63
2023/09/29 11:23:24;;;;;;;11.85;8.05;;;;;;;;;;4976773;28;20042;-63
2023/09/29 11:25:57;;;;;;;13.25;8.38;;;;;;;;;;4976604;28;20035;-63
2023/09/29 11:28:24;;;;;;;13.95;8.25;;;;;;;;;;4973668;28;20035;-63
2023/09/29 11:30:50;;;;;;;13.80;8.25;;;;;;;;;;4975376;28;20052;-63
2023/09/29 11:33:16;;;;;;;17.70;8.30;;;;;;;;;;4965714;28;20086;-63
2023/09/29 11:35:45;;;;;;;21.85;8.80;;;;;;;;;;4966586;28;20031;-63
2023/09/29 11:38:19;;;;;;;17.90;9.07;;;;;;;;;;4966796;28;20120;-63
2023/09/29 11:40:46;;;;;;;12.38;7.53;;;;;;;;;;4966779;28;20023;-63
2023/09/29 11:43:12;;;;;;;11.25;7.72;;;;;;;;;;4966502;28;20029;-63
2023/09/29 11:45:38;;;;;;;20.45;9.25;;;;;;;;;;4975847;28;20109;-63
2023/09/29 11:48:04;;;;;;;10.95;8.82;;;;;;;;;;4974214;28;20106;-63
2023/09/29 11:50:31;;;;;;;13.77;8.38;;;;;;;;;;4974081;28;20543;-64
2023/09/29 11:52:56;;;;;;;12.68;8.55;;;;;;;;;;4975742;28;20392;-63
2023/09/29 11:55:22;;;;;;;14.43;8.30;;;;;;;;;;4976081;28;20022;-63
2023/09/29 11:57:47;;;;;;;18.80;8.00;;;;;;;;;;4976205;28;20086;-64
2023/09/29 12:00:14;;;;;;;14.80;7.90;;;;;;;;;;4976068;28;20117;-63
2023/09/29 12:02:40;;;;;;;11.18;8.27;;;;;;;;;;4975688;28;20117;-63
2023/09/29 12:05:06;;;;;;;13.45;9.00;;;;;;;;;;4975959;28;20114;-63
2023/09/29 12:07:32;;;;;;;14.65;8.85;;;;;;;;;;4975695;28;20035;-62
2023/09/29 12:09:58;;;;;;;21.85;9.18;;;;;;;;;;4975765;28;20037;-63
2023/09/29 12:12:25;;;;;;;14.93;9.90;;;;;;;;;;4976463;28;20035;-63
2023/09/29 12:14:52;;;;;;;15.93;10.07;;;;;;;;;;4975898;28;20089;-62
2023/09/29 12:17:17;;;;;;;13.57;10.45;;;;;;;;;;4975802;28;20031;-64
2023/09/29 12:19:43;;;;;;;15.82;10.10;;;;;;;;;;4975783;28;20027;-63
2023/09/29 12:22:08;;;;;;;17.15;11.63;;;;;;;;;;4975429;28;20018;-63
2023/09/29 12:24:34;;;;;;;8.93;6.43;;;;;;;;;;4972901;28;20472;-62
2023/09/29 12:27:00;;;;;;;8.52;4.80;;;;;;;;;;4966798;28;20058;-66
2023/09/29 12:29:25;;;;;;;7.65;4.30;;;;;;;;;;4970694;28;20031;-63
2023/09/29 12:31:51;;;;;;;13.63;4.88;;;;;;;;;;4962656;28;20041;-63
2023/09/29 12:34:17;;;;;;;7.03;4.38;;;;;;;;;;4965564;28;20107;-64
2023/09/29 12:36:44;;;;;;;7.93;4.57;;;;;;;;;;4963974;28;20023;-63
2023/09/29 12:39:10;;;;;;;9.75;5.20;;;;;;;;;;4965845;28;20030;-63
2023/09/29 12:41:37;;;;;;;9.40;5.40;;;;;;;;;;4956150;28;20086;-63
2023/09/29 12:44:04;;;;;;;9.20;5.00;;;;;;;;;;4967291;28;20045;-63
2023/09/29 12:46:29;;;;;;;6.82;4.38;;;;;;;;;;4975344;28;20034;-63
2023/09/29 12:48:55;;;;;;;7.05;4.45;;;;;;;;;;4974676;28;20062;-63
2023/09/29 12:51:22;;;;;;;9.05;5.15;;;;;;;;;;4975046;28;20059;-63
2023/09/29 12:53:49;;;;;;;7.95;4.65;;;;;;;;;;4974811;28;20027;-63
2023/09/29 12:56:18;;;;;;;7.65;4.50;;;;;;;;;;4974816;28;20059;-63
2023/09/29 12:58:44;;;;;;;9.38;4.38;;;;;;;;;;4975226;28;20038;-62
2023/09/29 13:01:10;;;;;;;6.35;3.83;;;;;;;;;;4974942;28;20084;-63
2023/09/29 13:03:38;;;;;;;12.57;4.82;;;;;;;;;;4974791;28;20085;-63
2023/09/29 13:06:05;;;;;;;8.05;4.88;;;;;;;;;;4974644;28;20035;-64
2023/09/29 13:08:33;;;;;;;12.85;4.90;;;;;;;;;;4973408;28;20069;-63
2023/09/29 13:10:59;;;;;;;7.90;4.78;;;;;;;;;;4974887;28;20035;-63
2023/09/29 13:13:25;;;;;;;10.10;4.80;;;;;;;;;;4975268;28;20380;-63
2023/09/29 13:15:51;;;;;;;9.23;4.32;;;;;;;;;;4974587;28;20038;-63
2023/09/29 13:18:18;;;;;;;10.30;4.65;;;;;;;;;;4972729;28;20027;-63
2023/09/29 13:20:45;;;;;;;11.23;4.70;;;;;;;;;;4974492;28;20023;-66
2023/09/29 13:23:11;;;;;;;15.07;5.38;;;;;;;;;;4974201;28;20027;-63
2023/09/29 13:25:38;;;;;;;12.45;5.47;;;;;;;;;;4974597;28;20034;-63
2023/09/29 13:28:04;;;;;;;10.20;5.10;;;;;;;;;;4974473;28;20031;-66
2023/09/29 13:30:30;;;;;;;9.80;4.25;;;;;;;;;;4974137;28;20038;-65
2023/09/29 13:32:55;;;;;;;13.38;5.28;;;;;;;;;;4974205;28;20038;-62
2023/09/29 13:35:21;;;;;;;17.67;5.55;;;;;;;;;;4974257;28;20118;-63
2023/09/29 13:37:47;;;;;;;10.75;4.70;;;;;;;;;;4956418;28;20090;-63
2023/09/29 13:40:13;;;;;;;10.88;4.53;;;;;;;;;;4955035;28;20035;-64
2023/09/29 13:42:38;;;;;;;9.98;5.00;;;;;;;;;;4954886;28;20477;-63
2023/09/29 13:45:05;;;;;;;9.88;5.78;;;;;;;;;;4974006;28;20072;-63
2023/09/29 13:47:31;;;;;;;12.98;6.07;;;;;;;;;;4973426;28;20026;-62
2023/09/29 13:49:56;;;;;;;10.57;6.95;;;;;;;;;;4972990;28;20047;-63
2023/09/29 13:52:22;;;;;;;11.15;8.23;;;;;;;;;;4973498;28;20516;-63
2023/09/29 13:54:48;;;;;;;11.88;9.35;;;;;;;;;;4973514;28;20461;-62
2023/09/29 13:57:15;;;;;;;13.73;9.30;;;;;;;;;;4973535;28;20440;-63
2023/09/29 13:59:40;;;;;;;16.73;9.40;;;;;;;;;;4973466;28;20105;-63
2023/09/29 14:02:09;;;;;;;15.48;10.65;;;;;;;;;;4971227;28;20146;-62
2023/09/29 14:04:34;;;;;;;14.75;11.18;;;;;;;;;;4973197;28;20030;-65
2023/09/29 14:07:00;;;;;;;15.13;11.75;;;;;;;;;;4972684;28;20352;-62
2023/09/29 14:09:26;;;;;;;13.32;11.13;;;;;;;;;;4970520;28;20029;-62
2023/09/29 14:11:52;;;;;;;17.67;10.80;;;;;;;;;;4965497;28;20055;-63
2023/09/29 14:14:21;;;;;;;15.50;12.02;;;;;;;;;;4965103;28;20046;-63
2023/09/29 14:16:46;;;;;;;16.88;12.35;;;;;;;;;;4970876;28;20105;-62
2023/09/29 14:19:12;;;;;;;15.35;12.15;;;;;;;;;;4973054;28;20066;-62
2023/09/29 14:21:38;;;;;;;15.75;12.32;;;;;;;;;;4973450;28;20019;-62
2023/09/29 14:24:04;;;;;;;22.00;12.55;;;;;;;;;;4973523;28;20022;-62